Time;durP1;ratioP1;P1;durP2;ratioP2;P2;SDS_P1;SDS_P2;PMS_P1;PMS_P2;Temp;Humidity;BMP_temperature;BMP_pressure;BME280_temperature;BME280_humidity;BME280_pressure;Samples;Min_cycle;Max_cycle;Signal;HPM_P1;HPM_P2
2023/09/04 00:02:24;;;;;;;2.95;1.73;;;;;;;11.28;57.62;102872.19;4970017;28;20091;-74
2023/09/04 00:04:51;;;;;;;1.85;1.50;;;;;;;11.21;57.49;102881.00;4984578;28;20033;-75
2023/09/04 00:07:18;;;;;;;2.95;1.27;;;;;;;11.17;57.35;102885.41;4982598;28;20513;-75
2023/09/04 00:09:44;;;;;;;2.22;1.30;;;;;;;11.07;57.82;102886.38;4964650;28;20026;-75
2023/09/04 00:12:10;;;;;;;3.10;1.88;;;;;;;11.01;57.89;102879.44;4983613;28;20072;-74
2023/09/04 00:14:35;;;;;;;1.90;1.50;;;;;;;11.01;57.69;102875.97;4977019;28;20042;-76
2023/09/04 00:17:01;;;;;;;2.10;1.35;;;;;;;10.93;57.97;102878.66;4982893;28;20046;-74
2023/09/04 00:19:26;;;;;;;1.70;1.35;;;;;;;10.97;57.84;102880.38;4997484;28;20041;-74
2023/09/04 00:21:52;;;;;;;1.75;0.88;;;;;;;11.02;57.81;102883.81;4981356;28;20429;-69
2023/09/04 00:24:20;;;;;;;1.27;0.77;;;;;;;10.95;57.75;102881.25;4979577;28;20480;-69
2023/09/04 00:26:46;;;;;;;1.52;1.40;;;;;;;10.88;57.63;102880.44;4978579;28;20031;-73
2023/09/04 00:29:11;;;;;;;1.67;1.13;;;;;;;10.81;57.81;102881.34;4981390;28;20038;-70
2023/09/04 00:31:37;;;;;;;1.58;0.98;;;;;;;10.91;57.91;102880.44;4979944;28;20467;-70
2023/09/04 00:34:02;;;;;;;1.42;1.00;;;;;;;10.84;57.68;102870.91;4981983;28;20038;-70
2023/09/04 00:36:28;;;;;;;2.97;0.95;;;;;;;10.78;57.90;102861.31;4992445;28;20746;-70
2023/09/04 00:38:53;;;;;;;1.98;0.60;;;;;;;10.75;57.79;102873.53;4980706;28;20054;-70
2023/09/04 00:41:19;;;;;;;1.30;0.82;;;;;;;10.70;57.72;102876.19;4980095;28;20069;-72
2023/09/04 00:43:44;;;;;;;6.15;0.93;;;;;;;10.66;58.01;102868.41;4984537;28;20073;-73
2023/09/04 00:46:11;;;;;;;1.17;0.70;;;;;;;10.69;57.84;102878.84;4988420;28;20320;-71
2023/09/04 00:48:38;;;;;;;1.80;1.02;;;;;;;10.64;57.96;102879.75;4994234;28;20050;-72
2023/09/04 00:51:04;;;;;;;2.20;1.13;;;;;;;10.81;57.57;102879.63;4983491;28;20061;-72
2023/09/04 00:53:30;;;;;;;1.60;0.85;;;;;;;10.86;57.43;102881.34;4980137;28;20077;-74
2023/09/04 00:55:57;;;;;;;1.63;0.75;;;;;;;10.87;57.30;102873.47;4984389;28;20618;-72
2023/09/04 00:58:25;;;;;;;1.05;0.43;;;;;;;10.85;57.44;102877.84;4982155;28;20054;-74
2023/09/04 01:00:51;;;;;;;2.03;0.60;;;;;;;10.87;56.97;102878.72;4977708;28;20038;-69
2023/09/04 01:03:18;;;;;;;2.88;0.70;;;;;;;10.85;57.18;102880.47;4982084;28;20053;-69
2023/09/04 01:05:44;;;;;;;1.77;1.00;;;;;;;10.76;57.12;102872.69;4983864;28;20510;-71
2023/09/04 01:08:10;;;;;;;1.90;1.17;;;;;;;10.67;57.33;102876.25;4980495;28;20541;-71
2023/09/04 01:10:44;;;;;;;1.83;1.58;;;;;;;10.63;57.56;102875.38;4977082;28;20034;-71
2023/09/04 01:13:17;;;;;;;3.35;1.15;;;;;;;10.66;57.43;102874.53;4986335;28;20045;-71
2023/09/04 01:15:44;;;;;;;1.73;1.27;;;;;;;10.62;57.48;102873.66;4965840;28;20034;-70
2023/09/04 01:18:10;;;;;;;1.20;0.82;;;;;;;10.59;57.39;102868.47;4990419;28;20066;-71
2023/09/04 01:20:36;;;;;;;1.08;0.70;;;;;;;10.59;57.58;102878.94;4967176;28;20042;-69
2023/09/04 01:23:01;;;;;;;1.55;0.77;;;;;;;10.60;57.50;102867.59;4980896;28;20053;-74
2023/09/04 01:25:52;;;;;;;2.42;1.13;;;;;;;10.57;57.69;102869.34;4978404;28;20109;-70
2023/09/04 01:28:34;;;;;;;2.63;1.67;;;;;;;10.53;57.32;102865.03;4970114;28;20121;-72
2023/09/04 01:31:35;;;;;;;1.80;0.90;;;;;;;10.58;57.55;102868.47;4996447;28;20057;-70
2023/09/04 01:34:11;;;;;;;1.38;0.82;;;;;;;10.67;57.39;102868.41;4968153;28;20068;-71
2023/09/04 01:36:38;;;;;;;1.17;0.82;;;;;;;10.72;57.05;102863.97;4984331;28;20040;-72
2023/09/04 01:39:05;;;;;;;1.63;0.93;;;;;;;10.75;56.91;102863.09;4994118;28;20073;-73
2023/09/04 01:41:33;;;;;;;2.33;1.63;;;;;;;10.61;57.14;102853.59;4966038;28;20045;-71
2023/09/04 01:43:58;;;;;;;3.05;2.75;;;;;;;10.53;57.57;102858.06;4980802;28;20562;-72
2023/09/04 01:46:24;;;;;;;4.30;1.70;;;;;;;10.58;57.42;102856.25;4977283;28;20029;-71
2023/09/04 01:48:50;;;;;;;3.65;1.60;;;;;;;10.66;57.39;102852.72;4982689;28;20572;-74
2023/09/04 01:51:15;;;;;;;4.32;1.42;;;;;;;10.58;57.24;102853.66;4979294;28;20034;-72
2023/09/04 01:53:44;;;;;;;3.03;2.38;;;;;;;10.52;57.43;102853.69;4978837;28;20035;-73
2023/09/04 01:56:09;;;;;;;2.85;2.33;;;;;;;10.46;57.48;102851.16;4990076;28;20562;-72
2023/09/04 01:58:35;;;;;;;3.95;1.58;;;;;;;10.35;57.79;102847.75;4991569;28;20034;-73
2023/09/04 02:01:00;;;;;;;2.10;1.48;;;;;;;10.33;57.92;102850.38;4980244;28;20652;-72
2023/09/04 02:03:26;;;;;;;2.58;1.50;;;;;;;10.32;57.82;102847.75;4974902;28;20046;-73
2023/09/04 02:05:51;;;;;;;3.20;1.23;;;;;;;10.47;57.33;102846.78;4982577;28;20747;-71
2023/09/04 02:08:19;;;;;;;1.85;1.20;;;;;;;10.51;57.46;102849.34;4970698;28;20056;-73
2023/09/04 02:10:47;;;;;;;2.30;1.40;;;;;;;10.53;57.48;102850.22;4977095;28;20040;-72
2023/09/04 02:13:12;;;;;;;1.65;0.73;;;;;;;10.62;57.22;102857.97;4986403;28;20141;-74
2023/09/04 02:15:39;;;;;;;2.15;1.60;;;;;;;10.51;57.32;102858.97;4960812;28;20467;-71
2023/09/04 02:18:04;;;;;;;2.72;1.33;;;;;;;10.39;57.26;102857.28;4988643;28;20057;-73
2023/09/04 02:20:31;;;;;;;2.20;1.15;;;;;;;10.32;57.01;102855.59;4986797;28;20034;-73
2023/09/04 02:22:56;;;;;;;3.10;1.70;;;;;;;10.33;57.15;102849.50;4991406;28;20531;-71
2023/09/04 02:25:23;;;;;;;2.28;1.00;;;;;;;10.39;57.19;102850.34;4979565;28;20025;-71
2023/09/04 02:27:49;;;;;;;1.90;1.48;;;;;;;10.37;56.97;102859.03;4968181;28;20039;-71
2023/09/04 02:30:14;;;;;;;2.22;1.50;;;;;;;10.30;57.25;102854.75;4980235;28;20037;-72
2023/09/04 02:32:40;;;;;;;2.75;1.50;;;;;;;10.21;57.60;102850.44;4976856;28;20085;-74
2023/09/04 02:35:07;;;;;;;2.30;1.40;;;;;;;10.17;57.57;102854.84;4986364;28;20057;-71
2023/09/04 02:37:32;;;;;;;1.27;0.90;;;;;;;10.25;57.53;102851.31;4961523;28;20042;-73
2023/09/04 02:39:58;;;;;;;2.55;1.55;;;;;;;10.25;57.37;102851.31;4984884;28;20038;-72
2023/09/04 02:42:23;;;;;;;4.60;1.50;;;;;;;10.20;57.15;102844.34;4969048;28;20051;-71
2023/09/04 02:44:49;;;;;;;1.88;1.17;;;;;;;10.08;57.56;102848.78;4993103;28;20054;-71
2023/09/04 02:47:17;;;;;;;2.67;1.65;;;;;;;10.04;57.67;102847.97;4963265;28;20041;-72
2023/09/04 02:49:42;;;;;;;4.07;1.42;;;;;;;9.99;57.94;102844.47;4978035;28;20353;-72
2023/09/04 02:52:08;;;;;;;1.95;1.30;;;;;;;9.96;58.16;102845.38;4987259;28;20062;-71
2023/09/04 02:54:33;;;;;;;2.80;1.10;;;;;;;9.94;57.86;102841.91;4982540;28;20046;-71
2023/09/04 02:57:01;;;;;;;2.95;1.35;;;;;;;9.90;58.03;102839.31;4982409;28;20041;-71
2023/09/04 02:59:27;;;;;;;2.17;1.42;;;;;;;9.92;58.11;102842.78;4978970;28;20085;-69
2023/09/04 03:01:53;;;;;;;1.52;0.98;;;;;;;10.02;57.92;102839.25;4980838;28;20124;-71
2023/09/04 03:04:18;;;;;;;1.73;1.05;;;;;;;10.00;57.49;102838.41;4997390;28;20591;-70
2023/09/04 03:06:43;;;;;;;2.80;1.17;;;;;;;9.99;57.47;102844.47;4981138;28;20030;-70
2023/09/04 03:09:09;;;;;;;3.35;1.40;;;;;;;9.99;57.70;102850.59;4989997;28;20034;-71
2023/09/04 03:11:34;;;;;;;2.55;1.58;;;;;;;9.87;57.57;102839.34;4979101;28;20543;-72
2023/09/04 03:14:00;;;;;;;2.63;1.25;;;;;;;9.80;57.73;102842.00;4971803;28;20046;-71
2023/09/04 03:16:27;;;;;;;2.42;1.42;;;;;;;9.72;57.82;102841.16;4964876;28;20172;-72
2023/09/04 03:18:53;;;;;;;3.03;1.42;;;;;;;9.72;57.88;102830.72;4988363;28;20200;-70
2023/09/04 03:21:19;;;;;;;2.08;1.10;;;;;;;9.86;57.92;102837.63;4982757;28;20038;-71
2023/09/04 03:23:47;;;;;;;1.92;1.48;;;;;;;9.78;57.87;102835.88;4964547;28;20128;-70
2023/09/04 03:26:13;;;;;;;2.40;1.35;;;;;;;9.71;57.67;102842.00;4984283;28;20033;-69
2023/09/04 03:28:39;;;;;;;2.83;0.80;;;;;;;9.70;57.81;102842.00;4975287;28;20042;-70
2023/09/04 03:31:04;;;;;;;1.33;1.02;;;;;;;9.70;58.02;102844.63;4985832;28;20923;-69
2023/09/04 03:33:31;;;;;;;2.33;1.40;;;;;;;9.73;57.72;102842.00;4986363;28;20474;-71
2023/09/04 03:35:57;;;;;;;2.15;1.17;;;;;;;9.72;57.39;102835.03;4963672;28;20125;-70
2023/09/04 03:38:23;;;;;;;3.72;1.65;;;;;;;9.64;57.78;102829.00;4977640;28;20121;-70
2023/09/04 03:40:49;;;;;;;2.30;1.30;;;;;;;9.67;57.72;102835.06;4987042;28;20040;-69
2023/09/04 03:43:14;;;;;;;1.98;1.23;;;;;;;9.68;57.82;102836.81;4983011;28;20069;-73
2023/09/04 03:45:40;;;;;;;1.67;1.05;;;;;;;9.65;57.70;102828.97;4969761;28;20260;-71
2023/09/04 03:48:06;;;;;;;1.83;0.98;;;;;;;9.66;57.44;102830.72;4984292;28;20543;-70
2023/09/04 03:50:33;;;;;;;2.53;1.30;;;;;;;9.62;57.59;102839.44;4996205;28;20101;-70
2023/09/04 03:52:59;;;;;;;5.43;1.50;;;;;;;9.57;57.68;102836.84;4981826;28;20129;-71
2023/09/04 03:55:25;;;;;;;1.90;1.00;;;;;;;9.54;57.50;102841.22;4987557;28;20228;-70
2023/09/04 03:57:51;;;;;;;3.15;1.92;;;;;;;9.47;57.45;102839.50;4980749;28;20046;-68
2023/09/04 04:00:18;;;;;;;2.70;1.50;;;;;;;9.42;57.57;102830.84;4995048;28;20029;-71
2023/09/04 04:02:46;;;;;;;2.88;2.10;;;;;;;9.37;57.74;102839.53;4995438;28;20041;-70
2023/09/04 04:05:14;;;;;;;3.45;1.67;;;;;;;9.37;57.78;102841.28;4966274;28;20026;-70
2023/09/04 04:07:40;;;;;;;1.92;1.00;;;;;;;9.45;57.58;102841.25;4978509;28;20119;-70
2023/09/04 04:10:06;;;;;;;3.58;2.03;;;;;;;9.49;57.48;102840.38;4981369;28;20534;-71
2023/09/04 04:12:32;;;;;;;5.80;2.50;;;;;;;9.39;57.88;102836.94;4989566;28;20049;-71
2023/09/04 04:15:04;;;;;;;2.85;1.95;;;;;;;9.43;57.70;102838.63;4988620;28;20189;-71
2023/09/04 04:17:30;;;;;;;3.50;2.30;;;;;;;9.48;57.84;102838.66;4986256;28;20130;-71
2023/09/04 04:19:56;;;;;;;2.90;1.88;;;;;;;9.50;57.30;102834.25;4980874;28;20420;-70
2023/09/04 04:22:23;;;;;;;3.35;1.92;;;;;;;9.45;57.26;102838.66;4984884;28;20576;-68
2023/09/04 04:24:49;;;;;;;2.58;2.03;;;;;;;9.47;57.37;102842.97;4981807;28;20316;-71
2023/09/04 04:27:17;;;;;;;2.97;2.22;;;;;;;9.38;57.33;102843.03;4980116;28;20120;-71
2023/09/04 04:29:44;;;;;;;4.28;2.67;;;;;;;9.32;57.55;102845.63;4981904;28;20471;-70
2023/09/04 04:32:10;;;;;;;4.10;2.63;;;;;;;9.26;57.40;102846.53;4986050;28;20025;-67
2023/09/04 04:34:35;;;;;;;6.63;2.38;;;;;;;9.28;57.53;102844.81;4995880;28;20046;-70
2023/09/04 04:37:01;;;;;;;5.95;2.95;;;;;;;9.23;57.34;102843.06;4979732;28;20155;-71
2023/09/04 04:39:28;;;;;;;4.13;2.72;;;;;;;9.19;57.50;102844.84;4981441;28;20084;-70
2023/09/04 04:41:55;;;;;;;7.07;3.28;;;;;;;9.16;57.71;102843.09;4980061;28;20053;-71
2023/09/04 04:44:21;;;;;;;4.22;3.08;;;;;;;9.19;58.08;102844.84;4996493;28;20037;-71
2023/09/04 04:46:47;;;;;;;5.57;3.40;;;;;;;9.19;58.12;102848.31;4981294;28;20030;-72
2023/09/04 04:49:20;;;;;;;5.50;3.83;;;;;;;9.22;57.94;102849.16;4981051;28;20087;-70
2023/09/04 04:51:46;;;;;;;5.03;3.60;;;;;;;9.23;58.06;102850.88;4981296;28;20519;-71
2023/09/04 04:54:11;;;;;;;6.88;4.03;;;;;;;9.19;58.12;102839.63;4977594;28;20038;-71
2023/09/04 04:56:36;;;;;;;6.18;4.15;;;;;;;9.25;58.27;102844.78;4978392;28;20033;-71
2023/09/04 04:59:02;;;;;;;6.00;3.95;;;;;;;9.28;58.06;102847.41;4984431;28;20045;-70
2023/09/04 05:01:28;;;;;;;7.35;4.10;;;;;;;9.34;58.22;102847.41;4979493;28;20473;-72
2023/09/04 05:03:55;;;;;;;6.30;4.20;;;;;;;9.42;58.25;102838.66;4959444;28;20037;-70
2023/09/04 05:06:22;;;;;;;6.72;4.28;;;;;;;9.43;57.98;102843.00;4960498;28;20031;-71
2023/09/04 05:08:47;;;;;;;7.60;4.95;;;;;;;9.44;58.17;102844.75;4972386;28;20087;-71
2023/09/04 05:11:15;;;;;;;5.50;4.55;;;;;;;9.47;58.05;102839.50;4984641;28;20026;-74
2023/09/04 05:13:41;;;;;;;10.65;5.68;;;;;;;9.54;57.99;102841.22;4983733;28;20044;-70
2023/09/04 05:16:06;;;;;;;10.50;5.70;;;;;;;9.60;58.21;102842.06;4981144;28;20029;-73
2023/09/04 05:18:35;;;;;;;9.52;6.28;;;;;;;9.67;58.09;102842.91;4996033;28;20060;-72
2023/09/04 05:21:06;;;;;;;11.57;6.35;;;;;;;9.72;57.85;102840.25;4979028;28;20095;-73
2023/09/04 05:23:32;;;;;;;8.10;5.60;;;;;;;9.83;58.07;102848.06;4981373;28;20128;-71
2023/09/04 05:25:58;;;;;;;7.85;5.38;;;;;;;9.93;57.82;102840.19;4965441;28;20041;-70
2023/09/04 05:28:24;;;;;;;8.23;4.95;;;;;;;9.99;57.75;102844.47;4985665;28;20038;-71
2023/09/04 05:30:50;;;;;;;7.10;5.53;;;;;;;10.16;57.48;102847.00;4987076;28;20026;-71
2023/09/04 05:33:16;;;;;;;9.52;6.43;;;;;;;10.20;57.27;102846.97;4979349;28;20497;-71
2023/09/04 05:35:42;;;;;;;9.50;6.15;;;;;;;10.42;57.73;102847.69;4981664;28;20077;-71
2023/09/04 05:38:08;;;;;;;10.07;6.72;;;;;;;11.12;56.70;102853.16;4980673;28;20572;-71
2023/09/04 05:40:33;;;;;;;9.65;5.65;;;;;;;11.77;54.74;102836.66;4971051;28;20466;-71
2023/09/04 05:42:59;;;;;;;8.95;6.07;;;;;;;12.15;54.07;102845.75;4981170;28;20038;-71
2023/09/04 05:45:26;;;;;;;7.05;5.30;;;;;;;12.08;53.71;102852.84;4982224;28;20072;-71
2023/09/04 05:47:51;;;;;;;8.90;7.00;;;;;;;11.86;53.54;102845.28;4983454;28;20125;-71
2023/09/04 05:50:17;;;;;;;12.68;6.88;;;;;;;11.74;54.08;102840.19;4977978;28;20564;-70
2023/09/04 05:52:43;;;;;;;13.10;7.28;;;;;;;11.66;54.28;102836.81;4986819;28;20041;-71
2023/09/04 05:55:09;;;;;;;12.25;8.40;;;;;;;11.76;55.13;102846.28;4982790;28;20038;-71
2023/09/04 05:57:35;;;;;;;9.57;6.95;;;;;;;11.95;55.43;102846.03;4984087;28;20149;-71
2023/09/04 06:00:03;;;;;;;9.65;6.85;;;;;;;12.33;55.09;102849.84;4979446;28;21402;-71
2023/09/04 06:02:38;;;;;;;10.50;8.02;;;;;;;14.14;52.07;102849.81;4975903;28;20038;-72
2023/09/04 06:05:04;;;;;;;11.32;7.45;;;;;;;16.30;46.33;102846.44;4984820;28;20476;-73
2023/09/04 06:07:30;;;;;;;9.45;7.25;;;;;;;18.04;41.30;102841.81;4979102;28;20574;-71
2023/09/04 06:09:55;;;;;;;10.70;7.15;;;;;;;19.86;38.10;102845.31;4979065;28;20022;-72
2023/09/04 06:12:21;;;;;;;8.25;6.10;;;;;;;21.02;35.18;102847.44;4978931;28;20036;-72
2023/09/04 06:14:47;;;;;;;7.80;5.30;;;;;;;21.62;35.26;102847.69;4978775;28;20030;-72
2023/09/04 06:17:13;;;;;;;8.23;5.65;;;;;;;22.37;32.49;102840.72;4990443;28;20151;-75
2023/09/04 06:19:38;;;;;;;8.13;5.63;;;;;;;22.56;32.88;102839.59;4978102;28;20026;-73
2023/09/04 06:22:04;;;;;;;7.20;6.00;;;;;;;22.71;30.84;102837.84;4983936;28;20030;-73
2023/09/04 06:24:30;;;;;;;9.35;4.90;;;;;;;22.94;31.71;102839.09;4961508;28;20474;-72
2023/09/04 06:26:55;;;;;;;6.53;5.22;;;;;;;22.74;31.76;102843.00;4994377;28;20050;-72
2023/09/04 06:29:21;;;;;;;6.95;5.93;;;;;;;23.11;31.02;102840.72;4979686;28;20078;-72
2023/09/04 06:31:46;;;;;;;7.97;5.38;;;;;;;23.54;30.51;102838.88;4963430;28;20038;-72
2023/09/04 06:34:12;;;;;;;9.25;5.00;;;;;;;24.13;30.22;102835.91;4983328;28;20618;-72
2023/09/04 06:36:38;;;;;;;5.13;4.28;;;;;;;24.50;29.40;102830.72;4982284;28;20038;-72
2023/09/04 06:39:04;;;;;;;6.05;4.65;;;;;;;24.55;28.70;102836.63;4987280;28;20102;-71
2023/09/04 06:41:32;;;;;;;6.70;4.72;;;;;;;24.55;28.22;102836.63;4983349;28;20080;-72
2023/09/04 06:44:02;;;;;;;4.83;4.17;;;;;;;24.93;28.61;102838.44;4996342;28;20275;-73
2023/09/04 06:46:28;;;;;;;6.50;4.70;;;;;;;25.14;28.75;102844.06;4983666;28;20882;-72
2023/09/04 06:48:53;;;;;;;4.30;3.90;;;;;;;25.90;26.87;102838.59;4983904;28;20074;-74
2023/09/04 06:51:19;;;;;;;4.50;3.63;;;;;;;25.85;27.67;102846.97;4982310;28;21231;-72
2023/09/04 06:53:45;;;;;;;5.95;4.07;;;;;;;26.07;27.83;102847.09;4988231;28;21049;-69
2023/09/04 06:56:10;;;;;;;5.32;3.85;;;;;;;25.80;27.57;102850.00;4965420;28;20132;-69
2023/09/04 06:58:36;;;;;;;6.05;3.97;;;;;;;25.96;27.30;102847.03;4973838;28;20128;-71
2023/09/04 07:01:03;;;;;;;3.03;2.75;;;;;;;26.49;27.41;102844.75;4963042;28;20189;-70
2023/09/04 07:03:29;;;;;;;4.72;3.63;;;;;;;26.42;27.04;102842.66;4983763;28;20076;-69
2023/09/04 07:05:55;;;;;;;6.28;4.65;;;;;;;26.60;27.63;102851.13;4981452;28;20042;-69
2023/09/04 07:08:20;;;;;;;6.28;3.50;;;;;;;26.73;27.67;102846.50;4981483;28;20042;-69
2023/09/04 07:10:47;;;;;;;3.75;3.38;;;;;;;27.00;28.41;102842.59;4982496;28;20085;-69
2023/09/04 07:13:13;;;;;;;4.15;3.78;;;;;;;27.79;25.42;102840.66;4979188;28;20915;-69
2023/09/04 07:15:38;;;;;;;8.02;4.15;;;;;;;28.32;24.85;102850.53;4981472;28;20042;-71
2023/09/04 07:18:04;;;;;;;5.28;2.78;;;;;;;28.49;24.99;102851.78;4979025;28;20045;-71
2023/09/04 07:20:29;;;;;;;5.05;3.92;;;;;;;28.73;24.65;102846.13;4981348;28;20037;-71
2023/09/04 07:22:55;;;;;;;2.92;2.30;;;;;;;28.78;24.21;102849.25;4982472;28;20073;-72
2023/09/04 07:25:21;;;;;;;4.30;3.90;;;;;;;28.15;25.32;102851.16;4981352;28;20097;-71
2023/09/04 07:27:47;;;;;;;3.35;3.05;;;;;;;28.04;25.37;102846.66;4980113;28;20038;-71
2023/09/04 07:30:12;;;;;;;4.32;2.85;;;;;;;28.07;26.06;102849.06;4980474;28;20481;-71
2023/09/04 07:32:40;;;;;;;3.88;2.70;;;;;;;28.04;26.38;102843.97;4979420;28;20674;-70
2023/09/04 07:35:06;;;;;;;2.47;1.85;;;;;;;29.23;24.17;102848.03;4987840;28;20532;-70
2023/09/04 07:37:32;;;;;;;3.13;2.55;;;;;;;30.04;23.49;102842.41;4978357;28;20049;-71
2023/09/04 07:39:57;;;;;;;4.28;2.08;;;;;;;30.32;22.66;102856.88;4980409;28;20088;-70
2023/09/04 07:42:24;;;;;;;2.97;1.83;;;;;;;29.54;24.33;102855.03;4979492;28;20746;-70
2023/09/04 07:44:50;;;;;;;2.50;2.05;;;;;;;29.60;23.43;102860.91;4982568;28;20041;-70
2023/09/04 07:47:16;;;;;;;2.85;2.05;;;;;;;29.63;23.52;102860.59;4960299;28;20034;-70
2023/09/04 07:49:42;;;;;;;2.53;1.83;;;;;;;29.04;24.79;102855.03;4983012;28;20026;-71
2023/09/04 07:52:07;;;;;;;7.25;6.57;;;;;;;29.17;24.52;102862.88;4977195;28;20127;-70
2023/09/04 07:54:33;;;;;;;3.67;1.88;;;;;;;29.24;24.30;102866.75;4992994;28;20030;-71
2023/09/04 07:57:01;;;;;;;2.85;2.05;;;;;;;29.28;23.51;102867.31;4981809;28;20092;-71
2023/09/04 07:59:27;;;;;;;3.13;2.72;;;;;;;29.50;24.25;102872.44;4980186;28;20073;-70
2023/09/04 08:01:52;;;;;;;1.42;1.25;;;;;;;30.30;23.46;102870.50;4995667;28;20164;-70
2023/09/04 08:04:17;;;;;;;3.05;1.50;;;;;;;30.64;22.32;102870.03;4975813;28;20498;-71
2023/09/04 08:06:43;;;;;;;3.47;2.13;;;;;;;29.92;23.42;102872.22;4997158;28;20129;-70
2023/09/04 08:09:08;;;;;;;2.58;1.65;;;;;;;28.96;24.82;102871.00;4977578;28;20093;-70
2023/09/04 08:11:34;;;;;;;2.22;1.27;;;;;;;29.40;23.59;102873.44;4978503;28;20780;-70
2023/09/04 08:14:00;;;;;;;4.85;1.23;;;;;;;28.44;24.87;102868.31;4993748;28;20126;-71
2023/09/04 08:16:28;;;;;;;1.50;0.82;;;;;;;30.13;23.41;102873.94;4978420;28;20200;-70
2023/09/04 08:18:53;;;;;;;1.00;0.50;;;;;;;30.89;22.78;102864.94;4977987;28;20047;-72
2023/09/04 08:21:18;;;;;;;2.45;0.85;;;;;;;31.67;21.72;102864.53;4975336;28;20037;-71
2023/09/04 08:23:44;;;;;;;1.20;0.88;;;;;;;32.25;20.74;102866.69;4979644;28;20045;-70
2023/09/04 08:26:13;;;;;;;1.13;0.70;;;;;;;31.75;21.22;102867.31;4980085;28;20080;-70
2023/09/04 08:28:39;;;;;;;1.42;0.90;;;;;;;30.93;21.25;102860.94;4982769;28;20045;-70
2023/09/04 08:31:04;;;;;;;1.08;0.73;;;;;;;31.40;21.46;102866.25;4978655;28;20564;-70
2023/09/04 08:33:30;;;;;;;3.20;1.13;;;;;;;31.21;20.69;102854.56;4977256;28;20667;-71
2023/09/04 08:35:56;;;;;;;3.92;0.95;;;;;;;30.63;21.71;102854.00;4960162;28;20868;-70
2023/09/04 08:38:23;;;;;;;2.50;0.90;;;;;;;29.51;22.52;102858.00;4989203;28;20423;-69
2023/09/04 08:40:48;;;;;;;2.60;0.82;;;;;;;28.46;23.99;102852.06;4962303;28;20038;-68
2023/09/04 08:43:17;;;;;;;1.55;1.35;;;;;;;27.61;24.55;102852.88;4975898;28;20721;-70
2023/09/04 08:45:43;;;;;;;1.50;1.00;;;;;;;27.35;25.49;102852.38;4985700;28;20111;-69
2023/09/04 08:48:11;;;;;;;2.08;0.57;;;;;;;28.31;24.52;102849.69;4976494;28;20038;-70
2023/09/04 08:50:37;;;;;;;2.20;0.60;;;;;;;27.67;25.42;102855.09;4977827;28;20022;-71
2023/09/04 08:53:04;;;;;;;0.93;0.52;;;;;;;28.13;25.16;102843.22;4978172;28;20548;-70
2023/09/04 08:55:33;;;;;;;1.48;0.52;;;;;;;28.16;25.05;102847.47;4978076;28;20534;-70
2023/09/04 08:57:59;;;;;;;1.83;0.50;;;;;;;27.05;25.65;102846.66;4978362;28;20096;-72
2023/09/04 09:00:25;;;;;;;2.50;0.73;;;;;;;26.45;26.32;102847.81;4979291;28;20286;-70
2023/09/04 09:02:51;;;;;;;0.88;0.52;;;;;;;25.83;28.19;102851.59;4978020;28;20117;-70
2023/09/04 09:05:17;;;;;;;1.88;0.80;;;;;;;25.75;28.20;102840.59;4978104;28;20034;-69
2023/09/04 09:07:44;;;;;;;1.67;1.00;;;;;;;25.09;30.11;102846.25;4977828;28;20111;-70
2023/09/04 09:10:15;;;;;;;1.42;0.40;;;;;;;24.77;29.04;102841.34;4985863;28;20042;-70
2023/09/04 09:12:40;;;;;;;5.57;0.77;;;;;;;24.88;28.69;102839.69;4978350;28;20065;-70
2023/09/04 09:15:06;;;;;;;3.22;0.98;;;;;;;24.39;29.44;102842.16;4978854;28;20710;-70
2023/09/04 09:17:32;;;;;;;4.05;0.63;;;;;;;24.37;30.67;102838.72;4975854;28;20045;-70
2023/09/04 09:20:00;;;;;;;2.20;0.63;;;;;;;23.90;30.40;102833.91;4975747;28;20145;-69
2023/09/04 09:22:25;;;;;;;2.22;0.82;;;;;;;24.42;30.96;102830.41;4970974;28;20037;-70
2023/09/04 09:25:02;;;;;;;1.85;0.73;;;;;;;24.79;31.08;102839.38;4981552;28;20695;-70
2023/09/04 09:27:30;;;;;;;1.73;1.20;;;;;;;24.68;30.20;102833.09;4976807;28;20037;-70
2023/09/04 09:29:58;;;;;;;1.48;0.68;;;;;;;24.65;32.72;102821.63;4975735;28;20035;-71
2023/09/04 09:32:27;;;;;;;2.13;0.60;;;;;;;23.87;29.96;102823.44;4974960;28;20654;-71
2023/09/04 09:34:54;;;;;;;3.45;3.00;;;;;;;24.46;29.38;102836.38;4975581;28;20924;-70
2023/09/04 09:37:23;;;;;;;1.60;0.52;;;;;;;24.34;29.88;102835.38;4982970;28;20439;-70
2023/09/04 09:39:48;;;;;;;2.60;0.50;;;;;;;24.77;30.42;102830.63;4979364;28;20139;-70
2023/09/04 09:42:13;;;;;;;3.30;0.40;;;;;;;24.23;29.73;102818.25;4977312;28;20687;-70
2023/09/04 09:44:39;;;;;;;1.02;0.50;;;;;;;24.13;30.45;102817.19;4977750;28;20176;-70
2023/09/04 09:47:10;;;;;;;4.15;0.75;;;;;;;24.03;31.85;102814.31;4977794;28;20038;-70
2023/09/04 09:49:36;;;;;;;2.80;0.50;;;;;;;24.24;30.69;102809.31;4988209;28;20049;-69
2023/09/04 09:52:08;;;;;;;2.13;0.40;;;;;;;24.76;31.75;102804.00;4993881;28;20073;-71
2023/09/04 09:54:36;;;;;;;1.23;0.60;;;;;;;24.74;29.44;102803.25;4975580;28;22122;-70
2023/09/04 09:57:08;;;;;;;0.52;0.35;;;;;;;24.06;30.47;102802.56;4984192;28;20045;-70
2023/09/04 09:59:41;;;;;;;1.90;0.60;;;;;;;23.42;32.06;102803.16;4974928;28;20053;-69
2023/09/04 10:02:07;;;;;;;1.60;0.60;;;;;;;23.41;31.55;102796.13;4979657;28;20038;-70
2023/09/04 10:04:33;;;;;;;1.40;0.93;;;;;;;23.58;31.41;102796.81;4978241;28;20698;-70
2023/09/04 10:07:03;;;;;;;1.08;0.77;;;;;;;23.68;30.82;102805.94;4977483;28;20053;-70
2023/09/04 10:09:36;;;;;;;3.05;0.80;;;;;;;23.81;31.72;102796.16;4983624;28;20044;-71
2023/09/04 10:12:15;;;;;;;1.45;0.63;;;;;;;24.67;30.64;102799.31;4979992;28;20046;-70
2023/09/04 10:14:42;;;;;;;4.22;0.90;;;;;;;24.19;29.81;102792.75;4980841;28;20053;-70
2023/09/04 10:17:35;;;;;;;1.33;0.60;;;;;;;24.01;30.95;102793.97;4980535;28;20038;-70
2023/09/04 10:20:04;;;;;;;2.45;0.47;;;;;;;24.57;30.82;102785.72;4982878;28;20464;-70
2023/09/04 10:22:46;;;;;;;2.08;1.00;;;;;;;25.09;29.64;102784.72;4971937;28;21570;-70
2023/09/04 10:25:27;;;;;;;1.73;0.50;;;;;;;25.72;29.84;102784.59;4985530;28;20040;-70
2023/09/04 10:28:06;;;;;;;1.00;0.45;;;;;;;25.70;29.11;102784.69;4979478;28;20516;-70
2023/09/04 10:30:36;;;;;;;1.75;0.77;;;;;;;24.83;30.32;102781.19;4977834;28;20056;-70
2023/09/04 10:33:02;;;;;;;3.72;1.05;;;;;;;24.76;29.04;102778.09;4983041;28;20049;-69
2023/09/04 10:35:28;;;;;;;1.27;0.60;;;;;;;24.39;30.17;102771.78;4969474;28;20034;-70
2023/09/04 10:37:54;;;;;;;1.13;0.63;;;;;;;24.74;29.08;102781.84;4978789;28;20034;-70
2023/09/04 10:40:21;;;;;;;3.90;0.80;;;;;;;24.31;29.58;102774.16;4985886;28;20193;-70
2023/09/04 10:42:47;;;;;;;1.08;0.65;;;;;;;24.55;29.62;102777.81;4954276;28;20038;-70
2023/09/04 10:45:15;;;;;;;1.92;0.60;;;;;;;24.53;29.34;102770.88;4976979;28;20073;-69
2023/09/04 10:47:49;;;;;;;0.85;0.40;;;;;;;24.81;30.10;102767.94;4982774;28;20319;-70
2023/09/04 10:50:32;;;;;;;2.55;0.50;;;;;;;25.56;27.90;102763.47;4981738;28;20041;-70
2023/09/04 10:53:00;;;;;;;2.65;1.05;;;;;;;24.98;28.55;102766.75;4983441;28;20041;-70
2023/09/04 10:55:27;;;;;;;2.55;0.68;;;;;;;25.14;29.78;102758.47;4985523;28;20030;-70
2023/09/04 10:57:54;;;;;;;1.60;1.00;;;;;;;25.10;30.31;102758.81;4980752;28;20038;-70
2023/09/04 11:00:35;;;;;;;1.33;0.70;;;;;;;24.94;29.68;102756.38;4979906;28;20105;-70
2023/09/04 11:03:16;;;;;;;1.75;0.82;;;;;;;24.28;30.34;102753.84;4988319;28;20043;-70
2023/09/04 11:06:05;;;;;;;3.27;0.90;;;;;;;24.28;30.01;102752.97;4979493;28;20145;-69
2023/09/04 11:08:34;;;;;;;1.88;1.33;;;;;;;24.33;30.31;102754.38;4986125;28;20980;-70
2023/09/04 11:11:03;;;;;;;1.50;1.05;;;;;;;24.42;30.23;102747.56;4996835;28;20029;-70
2023/09/04 11:13:30;;;;;;;4.75;1.30;;;;;;;24.44;30.21;102748.31;4977934;28;20049;-70
2023/09/04 11:15:56;;;;;;;2.08;1.58;;;;;;;24.02;30.38;102750.31;4981522;28;20730;-70
2023/09/04 11:18:22;;;;;;;2.00;0.95;;;;;;;24.56;29.92;102742.09;4979777;28;20153;-70
2023/09/04 11:20:54;;;;;;;4.10;0.80;;;;;;;24.56;30.04;102742.09;4978214;28;20811;-70
2023/09/04 11:23:19;;;;;;;2.20;0.52;;;;;;;25.05;29.12;102741.25;4983586;28;20045;-70
2023/09/04 11:25:47;;;;;;;1.98;0.90;;;;;;;25.10;28.78;102742.75;4978278;28;20211;-70
2023/09/04 11:28:13;;;;;;;1.30;0.47;;;;;;;24.91;28.44;102735.19;4982094;28;20806;-70